sensor_id;sensor_type;location;lat;lon;timestamp;P1;durP1;ratioP1;P2;durP2;ratioP2
21721;SDS011;11023;48.274;7.794;2024-02-26T00:00:31;1.50;;;1.30;;
21721;SDS011;11023;48.274;7.794;2024-02-26T00:02:57;1.33;;;0.85;;
21721;SDS011;11023;48.274;7.794;2024-02-26T00:05:22;2.75;;;1.17;;
21721;SDS011;11023;48.274;7.794;2024-02-26T00:07:48;1.27;;;0.73;;
21721;SDS011;11023;48.274;7.794;2024-02-26T00:10:14;1.05;;;0.60;;
21721;SDS011;11023;48.274;7.794;2024-02-26T00:12:40;1.80;;;0.80;;
21721;SDS011;11023;48.274;7.794;2024-02-26T00:15:06;1.92;;;0.65;;
21721;SDS011;11023;48.274;7.794;2024-02-26T00:17:33;3.35;;;1.02;;
21721;SDS011;11023;48.274;7.794;2024-02-26T00:19:59;0.95;;;0.55;;
21721;SDS011;11023;48.274;7.794;2024-02-26T00:22:25;1.48;;;0.50;;
21721;SDS011;11023;48.274;7.794;2024-02-26T00:24:52;2.53;;;0.63;;
21721;SDS011;11023;48.274;7.794;2024-02-26T00:27:18;1.05;;;0.50;;
21721;SDS011;11023;48.274;7.794;2024-02-26T00:29:43;2.25;;;0.70;;
21721;SDS011;11023;48.274;7.794;2024-02-26T00:32:09;0.63;;;0.30;;
21721;SDS011;11023;48.274;7.794;2024-02-26T00:34:35;2.03;;;0.60;;
21721;SDS011;11023;48.274;7.794;2024-02-26T00:37:01;2.00;;;0.52;;
21721;SDS011;11023;48.274;7.794;2024-02-26T00:39:27;1.00;;;0.47;;
21721;SDS011;11023;48.274;7.794;2024-02-26T00:41:52;0.50;;;0.50;;
21721;SDS011;11023;48.274;7.794;2024-02-26T00:44:18;1.10;;;0.60;;
21721;SDS011;11023;48.274;7.794;2024-02-26T00:46:44;1.45;;;0.73;;
21721;SDS011;11023;48.274;7.794;2024-02-26T00:49:09;2.10;;;0.52;;
21721;SDS011;11023;48.274;7.794;2024-02-26T00:51:35;3.15;;;0.70;;
21721;SDS011;11023;48.274;7.794;2024-02-26T00:54:00;5.10;;;0.73;;
21721;SDS011;11023;48.274;7.794;2024-02-26T00:56:27;1.63;;;0.50;;
21721;SDS011;11023;48.274;7.794;2024-02-26T00:58:52;1.73;;;0.40;;
21721;SDS011;11023;48.274;7.794;2024-02-26T01:01:18;0.82;;;0.60;;
21721;SDS011;11023;48.274;7.794;2024-02-26T01:03:44;0.80;;;0.52;;
21721;SDS011;11023;48.274;7.794;2024-02-26T01:06:09;2.00;;;0.73;;
21721;SDS011;11023;48.274;7.794;2024-02-26T01:08:35;1.77;;;0.80;;
21721;SDS011;11023;48.274;7.794;2024-02-26T01:11:02;0.40;;;0.30;;
21721;SDS011;11023;48.274;7.794;2024-02-26T01:13:28;2.30;;;0.40;;
21721;SDS011;11023;48.274;7.794;2024-02-26T01:15:54;0.57;;;0.30;;
21721;SDS011;11023;48.274;7.794;2024-02-26T01:18:20;0.90;;;0.20;;
21721;SDS011;11023;48.274;7.794;2024-02-26T01:20:45;0.55;;;0.40;;
21721;SDS011;11023;48.274;7.794;2024-02-26T01:23:12;0.88;;;0.40;;
21721;SDS011;11023;48.274;7.794;2024-02-26T01:25:38;0.90;;;0.40;;
21721;SDS011;11023;48.274;7.794;2024-02-26T01:28:04;1.95;;;0.30;;
21721;SDS011;11023;48.274;7.794;2024-02-26T01:30:30;0.38;;;0.30;;
21721;SDS011;11023;48.274;7.794;2024-02-26T01:32:56;0.35;;;0.32;;
21721;SDS011;11023;48.274;7.794;2024-02-26T01:35:22;1.10;;;0.52;;
21721;SDS011;11023;48.274;7.794;2024-02-26T01:37:48;0.47;;;0.22;;
21721;SDS011;11023;48.274;7.794;2024-02-26T01:40:14;1.45;;;0.50;;
21721;SDS011;11023;48.274;7.794;2024-02-26T01:42:44;0.80;;;0.40;;
21721;SDS011;11023;48.274;7.794;2024-02-26T01:45:12;0.90;;;0.50;;
21721;SDS011;11023;48.274;7.794;2024-02-26T01:47:41;0.60;;;0.38;;
21721;SDS011;11023;48.274;7.794;2024-02-26T01:50:07;0.47;;;0.43;;
21721;SDS011;11023;48.274;7.794;2024-02-26T01:52:33;0.60;;;0.40;;
21721;SDS011;11023;48.274;7.794;2024-02-26T01:55:00;0.98;;;0.68;;
21721;SDS011;11023;48.274;7.794;2024-02-26T01:57:27;5.05;;;0.68;;
21721;SDS011;11023;48.274;7.794;2024-02-26T01:59:53;1.70;;;0.40;;
21721;SDS011;11023;48.274;7.794;2024-02-26T02:02:20;3.30;;;0.50;;
21721;SDS011;11023;48.274;7.794;2024-02-26T02:04:45;2.08;;;0.50;;
21721;SDS011;11023;48.274;7.794;2024-02-26T02:07:11;0.50;;;0.40;;
21721;SDS011;11023;48.274;7.794;2024-02-26T02:09:38;0.50;;;0.32;;
21721;SDS011;11023;48.274;7.794;2024-02-26T02:12:03;0.30;;;0.30;;
21721;SDS011;11023;48.274;7.794;2024-02-26T02:14:31;0.63;;;0.40;;
21721;SDS011;11023;48.274;7.794;2024-02-26T02:16:57;0.85;;;0.30;;
21721;SDS011;11023;48.274;7.794;2024-02-26T02:19:22;0.28;;;0.20;;
21721;SDS011;11023;48.274;7.794;2024-02-26T02:21:48;0.55;;;0.30;;
21721;SDS011;11023;48.274;7.794;2024-02-26T02:24:14;1.25;;;0.30;;
21721;SDS011;11023;48.274;7.794;2024-02-26T02:26:39;1.80;;;0.60;;
21721;SDS011;11023;48.274;7.794;2024-02-26T02:29:05;0.30;;;0.30;;
21721;SDS011;11023;48.274;7.794;2024-02-26T02:31:32;0.25;;;0.20;;
21721;SDS011;11023;48.274;7.794;2024-02-26T02:33:58;0.75;;;0.38;;
21721;SDS011;11023;48.274;7.794;2024-02-26T02:36:24;2.95;;;0.30;;
21721;SDS011;11023;48.274;7.794;2024-02-26T02:38:50;1.23;;;0.20;;
21721;SDS011;11023;48.274;7.794;2024-02-26T02:41:16;0.40;;;0.22;;
21721;SDS011;11023;48.274;7.794;2024-02-26T02:43:44;0.10;;;0.10;;
21721;SDS011;11023;48.274;7.794;2024-02-26T02:46:10;0.32;;;0.30;;
21721;SDS011;11023;48.274;7.794;2024-02-26T02:48:38;0.63;;;0.20;;
21721;SDS011;11023;48.274;7.794;2024-02-26T02:51:05;0.30;;;0.30;;
21721;SDS011;11023;48.274;7.794;2024-02-26T02:53:31;0.30;;;0.20;;
21721;SDS011;11023;48.274;7.794;2024-02-26T02:55:56;0.55;;;0.38;;
21721;SDS011;11023;48.274;7.794;2024-02-26T02:58:22;0.30;;;0.20;;
21721;SDS011;11023;48.274;7.794;2024-02-26T03:00:48;0.20;;;0.20;;
21721;SDS011;11023;48.274;7.794;2024-02-26T03:03:14;0.20;;;0.20;;
21721;SDS011;11023;48.274;7.794;2024-02-26T03:05:39;0.60;;;0.20;;
21721;SDS011;11023;48.274;7.794;2024-02-26T03:08:05;0.20;;;0.20;;
21721;SDS011;11023;48.274;7.794;2024-02-26T03:10:31;0.55;;;0.28;;
21721;SDS011;11023;48.274;7.794;2024-02-26T03:12:57;0.32;;;0.30;;
21721;SDS011;11023;48.274;7.794;2024-02-26T03:15:23;0.57;;;0.20;;
21721;SDS011;11023;48.274;7.794;2024-02-26T03:17:48;0.30;;;0.28;;
21721;SDS011;11023;48.274;7.794;2024-02-26T03:20:14;0.55;;;0.40;;
21721;SDS011;11023;48.274;7.794;2024-02-26T03:22:40;0.50;;;0.30;;
21721;SDS011;11023;48.274;7.794;2024-02-26T03:25:06;0.30;;;0.30;;
21721;SDS011;11023;48.274;7.794;2024-02-26T03:27:32;0.43;;;0.30;;
21721;SDS011;11023;48.274;7.794;2024-02-26T03:29:58;0.68;;;0.47;;
21721;SDS011;11023;48.274;7.794;2024-02-26T03:32:24;0.65;;;0.40;;
21721;SDS011;11023;48.274;7.794;2024-02-26T03:34:50;0.75;;;0.35;;
21721;SDS011;11023;48.274;7.794;2024-02-26T03:37:19;0.32;;;0.32;;
21721;SDS011;11023;48.274;7.794;2024-02-26T03:39:45;1.38;;;0.68;;
21721;SDS011;11023;48.274;7.794;2024-02-26T03:42:10;0.50;;;0.40;;
21721;SDS011;11023;48.274;7.794;2024-02-26T03:44:36;1.13;;;0.50;;
21721;SDS011;11023;48.274;7.794;2024-02-26T03:47:03;1.20;;;0.82;;
21721;SDS011;11023;48.274;7.794;2024-02-26T03:49:29;1.85;;;0.60;;
21721;SDS011;11023;48.274;7.794;2024-02-26T03:51:54;0.80;;;0.55;;
21721;SDS011;11023;48.274;7.794;2024-02-26T03:54:20;1.25;;;0.55;;
21721;SDS011;11023;48.274;7.794;2024-02-26T03:56:46;0.68;;;0.65;;
21721;SDS011;11023;48.274;7.794;2024-02-26T03:59:12;0.68;;;0.55;;
21721;SDS011;11023;48.274;7.794;2024-02-26T04:01:37;2.15;;;0.70;;
21721;SDS011;11023;48.274;7.794;2024-02-26T04:04:03;1.45;;;0.77;;
21721;SDS011;11023;48.274;7.794;2024-02-26T04:06:29;0.80;;;0.73;;
21721;SDS011;11023;48.274;7.794;2024-02-26T04:08:55;0.70;;;0.63;;
21721;SDS011;11023;48.274;7.794;2024-02-26T04:11:21;1.48;;;0.77;;
21721;SDS011;11023;48.274;7.794;2024-02-26T04:13:47;0.80;;;0.60;;
21721;SDS011;11023;48.274;7.794;2024-02-26T04:16:16;1.08;;;0.57;;
21721;SDS011;11023;48.274;7.794;2024-02-26T04:18:42;1.50;;;0.80;;
21721;SDS011;11023;48.274;7.794;2024-02-26T04:21:07;1.25;;;0.90;;
21721;SDS011;11023;48.274;7.794;2024-02-26T04:23:33;1.08;;;0.50;;
21721;SDS011;11023;48.274;7.794;2024-02-26T04:25:59;3.25;;;1.02;;
21721;SDS011;11023;48.274;7.794;2024-02-26T04:28:24;1.00;;;0.60;;
21721;SDS011;11023;48.274;7.794;2024-02-26T04:30:51;1.00;;;0.60;;
21721;SDS011;11023;48.274;7.794;2024-02-26T04:33:18;1.15;;;0.60;;
21721;SDS011;11023;48.274;7.794;2024-02-26T04:35:43;0.75;;;0.50;;
21721;SDS011;11023;48.274;7.794;2024-02-26T04:38:09;1.13;;;0.70;;
21721;SDS011;11023;48.274;7.794;2024-02-26T04:40:35;1.85;;;0.43;;
21721;SDS011;11023;48.274;7.794;2024-02-26T04:43:01;0.63;;;0.50;;
21721;SDS011;11023;48.274;7.794;2024-02-26T04:45:26;0.50;;;0.50;;
21721;SDS011;11023;48.274;7.794;2024-02-26T04:47:52;0.65;;;0.65;;
21721;SDS011;11023;48.274;7.794;2024-02-26T04:50:18;1.85;;;0.70;;
21721;SDS011;11023;48.274;7.794;2024-02-26T04:52:45;1.10;;;0.60;;
21721;SDS011;11023;48.274;7.794;2024-02-26T04:55:10;0.68;;;0.50;;
21721;SDS011;11023;48.274;7.794;2024-02-26T04:57:36;0.55;;;0.55;;
21721;SDS011;11023;48.274;7.794;2024-02-26T05:00:03;0.93;;;0.70;;
21721;SDS011;11023;48.274;7.794;2024-02-26T05:02:30;1.25;;;1.00;;
21721;SDS011;11023;48.274;7.794;2024-02-26T05:04:57;1.90;;;1.48;;
21721;SDS011;11023;48.274;7.794;2024-02-26T05:07:23;2.05;;;1.17;;
21721;SDS011;11023;48.274;7.794;2024-02-26T05:09:48;1.80;;;1.10;;
21721;SDS011;11023;48.274;7.794;2024-02-26T05:12:17;1.23;;;0.80;;
21721;SDS011;11023;48.274;7.794;2024-02-26T05:14:42;1.15;;;0.80;;
21721;SDS011;11023;48.274;7.794;2024-02-26T05:17:08;5.25;;;1.02;;
21721;SDS011;11023;48.274;7.794;2024-02-26T05:19:34;2.55;;;1.00;;
21721;SDS011;11023;48.274;7.794;2024-02-26T05:22:00;4.07;;;0.88;;
21721;SDS011;11023;48.274;7.794;2024-02-26T05:24:26;1.33;;;0.63;;
21721;SDS011;11023;48.274;7.794;2024-02-26T05:26:53;0.90;;;0.73;;
21721;SDS011;11023;48.274;7.794;2024-02-26T05:29:20;0.60;;;0.60;;
21721;SDS011;11023;48.274;7.794;2024-02-26T05:31:47;0.68;;;0.47;;
21721;SDS011;11023;48.274;7.794;2024-02-26T05:34:12;0.55;;;0.55;;
21721;SDS011;11023;48.274;7.794;2024-02-26T05:36:38;1.20;;;0.50;;
21721;SDS011;11023;48.274;7.794;2024-02-26T05:39:04;1.45;;;1.00;;
21721;SDS011;11023;48.274;7.794;2024-02-26T05:41:30;1.15;;;0.77;;
21721;SDS011;11023;48.274;7.794;2024-02-26T05:43:55;1.10;;;0.82;;
21721;SDS011;11023;48.274;7.794;2024-02-26T05:46:21;1.42;;;1.00;;
21721;SDS011;11023;48.274;7.794;2024-02-26T05:48:48;1.40;;;0.80;;
21721;SDS011;11023;48.274;7.794;2024-02-26T05:51:17;0.50;;;0.50;;
21721;SDS011;11023;48.274;7.794;2024-02-26T05:53:43;1.38;;;0.60;;
21721;SDS011;11023;48.274;7.794;2024-02-26T05:56:09;0.57;;;0.57;;
21721;SDS011;11023;48.274;7.794;2024-02-26T05:58:35;0.77;;;0.50;;
21721;SDS011;11023;48.274;7.794;2024-02-26T06:01:02;2.60;;;0.60;;
21721;SDS011;11023;48.274;7.794;2024-02-26T06:03:27;1.73;;;0.90;;
21721;SDS011;11023;48.274;7.794;2024-02-26T06:05:53;1.35;;;0.63;;
21721;SDS011;11023;48.274;7.794;2024-02-26T06:08:19;2.25;;;0.60;;
21721;SDS011;11023;48.274;7.794;2024-02-26T06:10:46;0.50;;;0.50;;
21721;SDS011;11023;48.274;7.794;2024-02-26T06:13:12;2.05;;;0.70;;
21721;SDS011;11023;48.274;7.794;2024-02-26T06:15:38;0.73;;;0.52;;
21721;SDS011;11023;48.274;7.794;2024-02-26T06:18:04;1.95;;;0.47;;
21721;SDS011;11023;48.274;7.794;2024-02-26T06:20:31;1.13;;;0.70;;
21721;SDS011;11023;48.274;7.794;2024-02-26T06:22:56;1.88;;;0.70;;
21721;SDS011;11023;48.274;7.794;2024-02-26T06:25:22;0.90;;;0.50;;
21721;SDS011;11023;48.274;7.794;2024-02-26T06:27:48;1.17;;;0.60;;
21721;SDS011;11023;48.274;7.794;2024-02-26T06:30:15;2.70;;;0.77;;
21721;SDS011;11023;48.274;7.794;2024-02-26T06:32:41;0.93;;;0.65;;
21721;SDS011;11023;48.274;7.794;2024-02-26T06:35:07;1.00;;;0.73;;
21721;SDS011;11023;48.274;7.794;2024-02-26T06:37:36;0.45;;;0.45;;
21721;SDS011;11023;48.274;7.794;2024-02-26T06:40:04;1.05;;;0.93;;
21721;SDS011;11023;48.274;7.794;2024-02-26T06:42:31;1.23;;;0.75;;
21721;SDS011;11023;48.274;7.794;2024-02-26T06:44:58;2.80;;;1.92;;
21721;SDS011;11023;48.274;7.794;2024-02-26T06:47:24;2.50;;;1.20;;
21721;SDS011;11023;48.274;7.794;2024-02-26T06:49:51;1.95;;;1.17;;
21721;SDS011;11023;48.274;7.794;2024-02-26T06:52:16;1.73;;;1.10;;
21721;SDS011;11023;48.274;7.794;2024-02-26T06:54:42;1.10;;;1.00;;
21721;SDS011;11023;48.274;7.794;2024-02-26T06:57:08;6.50;;;1.40;;
21721;SDS011;11023;48.274;7.794;2024-02-26T06:59:35;1.45;;;1.27;;
21721;SDS011;11023;48.274;7.794;2024-02-26T07:02:01;2.08;;;1.10;;
21721;SDS011;11023;48.274;7.794;2024-02-26T07:04:27;1.20;;;0.90;;
21721;SDS011;11023;48.274;7.794;2024-02-26T07:06:52;1.95;;;0.85;;
21721;SDS011;11023;48.274;7.794;2024-02-26T07:09:18;2.00;;;1.20;;
21721;SDS011;11023;48.274;7.794;2024-02-26T07:11:44;1.88;;;1.05;;
21721;SDS011;11023;48.274;7.794;2024-02-26T07:14:10;1.63;;;1.20;;
21721;SDS011;11023;48.274;7.794;2024-02-26T07:16:38;4.57;;;1.73;;
21721;SDS011;11023;48.274;7.794;2024-02-26T07:19:03;2.20;;;1.50;;
21721;SDS011;11023;48.274;7.794;2024-02-26T07:21:29;1.95;;;1.30;;
21721;SDS011;11023;48.274;7.794;2024-02-26T07:23:55;2.42;;;1.80;;
21721;SDS011;11023;48.274;7.794;2024-02-26T07:26:23;3.95;;;1.80;;
21721;SDS011;11023;48.274;7.794;2024-02-26T07:28:51;2.90;;;1.70;;
21721;SDS011;11023;48.274;7.794;2024-02-26T07:31:20;2.30;;;1.30;;
21721;SDS011;11023;48.274;7.794;2024-02-26T07:33:45;1.10;;;0.90;;
21721;SDS011;11023;48.274;7.794;2024-02-26T07:36:11;3.00;;;1.90;;
21721;SDS011;11023;48.274;7.794;2024-02-26T07:38:39;2.25;;;1.52;;
21721;SDS011;11023;48.274;7.794;2024-02-26T07:41:04;3.63;;;1.52;;
21721;SDS011;11023;48.274;7.794;2024-02-26T07:43:32;2.97;;;1.17;;
21721;SDS011;11023;48.274;7.794;2024-02-26T07:45:58;3.67;;;1.58;;
21721;SDS011;11023;48.274;7.794;2024-02-26T07:48:23;4.20;;;2.10;;
21721;SDS011;11023;48.274;7.794;2024-02-26T07:50:49;6.53;;;1.83;;
21721;SDS011;11023;48.274;7.794;2024-02-26T07:53:15;4.82;;;1.80;;
21721;SDS011;11023;48.274;7.794;2024-02-26T07:55:42;3.33;;;1.40;;
21721;SDS011;11023;48.274;7.794;2024-02-26T07:58:08;1.45;;;1.20;;
21721;SDS011;11023;48.274;7.794;2024-02-26T08:00:34;2.25;;;1.30;;
21721;SDS011;11023;48.274;7.794;2024-02-26T08:03:00;3.40;;;1.65;;
21721;SDS011;11023;48.274;7.794;2024-02-26T08:05:26;3.10;;;2.10;;
21721;SDS011;11023;48.274;7.794;2024-02-26T08:07:52;2.20;;;1.40;;
21721;SDS011;11023;48.274;7.794;2024-02-26T08:10:18;3.63;;;2.28;;
21721;SDS011;11023;48.274;7.794;2024-02-26T08:12:44;3.35;;;1.75;;
21721;SDS011;11023;48.274;7.794;2024-02-26T08:15:10;4.35;;;1.83;;
21721;SDS011;11023;48.274;7.794;2024-02-26T08:17:36;3.03;;;1.80;;
21721;SDS011;11023;48.274;7.794;2024-02-26T08:20:02;5.97;;;1.95;;
21721;SDS011;11023;48.274;7.794;2024-02-26T08:22:30;3.53;;;1.60;;
21721;SDS011;11023;48.274;7.794;2024-02-26T08:24:57;1.73;;;1.40;;
21721;SDS011;11023;48.274;7.794;2024-02-26T08:27:23;2.67;;;1.42;;
21721;SDS011;11023;48.274;7.794;2024-02-26T08:29:48;3.95;;;1.38;;
21721;SDS011;11023;48.274;7.794;2024-02-26T08:32:14;2.67;;;1.40;;
21721;SDS011;11023;48.274;7.794;2024-02-26T08:34:40;3.83;;;1.80;;
21721;SDS011;11023;48.274;7.794;2024-02-26T08:37:05;3.00;;;1.58;;
21721;SDS011;11023;48.274;7.794;2024-02-26T08:39:31;3.38;;;2.08;;
21721;SDS011;11023;48.274;7.794;2024-02-26T08:41:57;2.35;;;1.60;;
21721;SDS011;11023;48.274;7.794;2024-02-26T08:44:22;2.72;;;1.52;;
21721;SDS011;11023;48.274;7.794;2024-02-26T08:46:48;3.03;;;1.67;;
21721;SDS011;11023;48.274;7.794;2024-02-26T08:49:15;2.65;;;1.70;;
21721;SDS011;11023;48.274;7.794;2024-02-26T08:51:44;3.38;;;1.67;;
21721;SDS011;11023;48.274;7.794;2024-02-26T08:54:10;10.75;;;2.22;;
21721;SDS011;11023;48.274;7.794;2024-02-26T08:56:37;3.45;;;1.98;;
21721;SDS011;11023;48.274;7.794;2024-02-26T08:59:03;3.88;;;2.58;;
21721;SDS011;11023;48.274;7.794;2024-02-26T09:01:29;6.45;;;1.88;;
21721;SDS011;11023;48.274;7.794;2024-02-26T09:03:56;2.90;;;2.00;;
21721;SDS011;11023;48.274;7.794;2024-02-26T09:06:23;1.92;;;1.63;;
21721;SDS011;11023;48.274;7.794;2024-02-26T09:08:49;2.35;;;1.83;;
21721;SDS011;11023;48.274;7.794;2024-02-26T09:11:14;3.65;;;1.73;;
21721;SDS011;11023;48.274;7.794;2024-02-26T09:13:40;1.60;;;1.20;;
21721;SDS011;11023;48.274;7.794;2024-02-26T09:16:07;3.28;;;1.33;;
21721;SDS011;11023;48.274;7.794;2024-02-26T09:18:33;2.05;;;1.20;;
21721;SDS011;11023;48.274;7.794;2024-02-26T09:20:58;2.15;;;1.10;;
21721;SDS011;11023;48.274;7.794;2024-02-26T09:23:24;4.47;;;1.35;;
21721;SDS011;11023;48.274;7.794;2024-02-26T09:25:51;6.25;;;1.23;;
21721;SDS011;11023;48.274;7.794;2024-02-26T09:28:16;5.90;;;1.30;;
21721;SDS011;11023;48.274;7.794;2024-02-26T09:30:44;2.50;;;0.77;;
21721;SDS011;11023;48.274;7.794;2024-02-26T09:33:10;1.45;;;0.90;;
21721;SDS011;11023;48.274;7.794;2024-02-26T09:35:37;2.20;;;0.70;;
21721;SDS011;11023;48.274;7.794;2024-02-26T09:38:02;1.25;;;0.63;;
21721;SDS011;11023;48.274;7.794;2024-02-26T09:40:28;1.52;;;0.70;;
21721;SDS011;11023;48.274;7.794;2024-02-26T09:43:00;0.68;;;0.57;;
21721;SDS011;11023;48.274;7.794;2024-02-26T09:45:28;1.40;;;0.80;;
21721;SDS011;11023;48.274;7.794;2024-02-26T09:47:57;3.33;;;0.77;;
21721;SDS011;11023;48.274;7.794;2024-02-26T09:50:25;1.40;;;0.60;;
21721;SDS011;11023;48.274;7.794;2024-02-26T09:52:51;0.70;;;0.40;;
21721;SDS011;11023;48.274;7.794;2024-02-26T09:55:19;1.08;;;0.60;;
21721;SDS011;11023;48.274;7.794;2024-02-26T09:57:45;0.80;;;0.50;;
21721;SDS011;11023;48.274;7.794;2024-02-26T10:00:17;0.40;;;0.40;;
21721;SDS011;11023;48.274;7.794;2024-02-26T10:02:45;2.88;;;0.60;;
21721;SDS011;11023;48.274;7.794;2024-02-26T10:05:14;0.98;;;0.55;;
21721;SDS011;11023;48.274;7.794;2024-02-26T10:07:46;1.90;;;0.90;;
21721;SDS011;11023;48.274;7.794;2024-02-26T10:10:12;2.92;;;0.80;;
21721;SDS011;11023;48.274;7.794;2024-02-26T10:12:40;6.15;;;0.80;;
21721;SDS011;11023;48.274;7.794;2024-02-26T10:15:06;1.45;;;0.60;;
21721;SDS011;11023;48.274;7.794;2024-02-26T10:17:32;0.80;;;0.70;;
21721;SDS011;11023;48.274;7.794;2024-02-26T10:20:16;1.73;;;0.90;;
21721;SDS011;11023;48.274;7.794;2024-02-26T10:22:43;1.00;;;0.70;;
21721;SDS011;11023;48.274;7.794;2024-02-26T10:25:09;1.00;;;0.90;;
21721;SDS011;11023;48.274;7.794;2024-02-26T10:27:35;1.80;;;1.02;;
21721;SDS011;11023;48.274;7.794;2024-02-26T10:30:04;4.05;;;0.85;;
21721;SDS011;11023;48.274;7.794;2024-02-26T10:32:50;0.77;;;0.60;;
21721;SDS011;11023;48.274;7.794;2024-02-26T10:35:16;1.02;;;0.77;;
21721;SDS011;11023;48.274;7.794;2024-02-26T10:37:49;0.73;;;0.70;;
21721;SDS011;11023;48.274;7.794;2024-02-26T10:40:16;1.42;;;0.88;;
21721;SDS011;11023;48.274;7.794;2024-02-26T10:42:42;1.27;;;0.73;;
21721;SDS011;11023;48.274;7.794;2024-02-26T10:45:10;0.70;;;0.70;;
21721;SDS011;11023;48.274;7.794;2024-02-26T10:47:36;1.77;;;0.68;;
21721;SDS011;11023;48.274;7.794;2024-02-26T10:50:02;0.77;;;0.60;;
21721;SDS011;11023;48.274;7.794;2024-02-26T10:52:33;1.40;;;0.75;;
21721;SDS011;11023;48.274;7.794;2024-02-26T10:55:03;2.97;;;0.73;;
21721;SDS011;11023;48.274;7.794;2024-02-26T10:57:33;1.08;;;0.70;;
21721;SDS011;11023;48.274;7.794;2024-02-26T11:00:03;1.70;;;0.88;;
21721;SDS011;11023;48.274;7.794;2024-02-26T11:02:31;1.75;;;0.98;;
21721;SDS011;11023;48.274;7.794;2024-02-26T11:05:04;1.25;;;0.88;;
21721;SDS011;11023;48.274;7.794;2024-02-26T11:07:31;1.67;;;0.90;;
21721;SDS011;11023;48.274;7.794;2024-02-26T11:09:59;0.68;;;0.50;;
21721;SDS011;11023;48.274;7.794;2024-02-26T11:12:27;0.93;;;0.63;;
21721;SDS011;11023;48.274;7.794;2024-02-26T11:14:54;2.78;;;1.10;;
21721;SDS011;11023;48.274;7.794;2024-02-26T11:17:25;4.18;;;1.33;;
21721;SDS011;11023;48.274;7.794;2024-02-26T11:19:55;1.10;;;0.77;;
21721;SDS011;11023;48.274;7.794;2024-02-26T11:22:23;5.15;;;1.27;;
21721;SDS011;11023;48.274;7.794;2024-02-26T11:24:54;3.25;;;1.27;;
21721;SDS011;11023;48.274;7.794;2024-02-26T11:27:37;1.83;;;1.30;;
21721;SDS011;11023;48.274;7.794;2024-02-26T11:30:08;1.20;;;1.00;;
21721;SDS011;11023;48.274;7.794;2024-02-26T11:32:36;1.60;;;0.82;;
21721;SDS011;11023;48.274;7.794;2024-02-26T11:35:02;1.48;;;0.80;;
21721;SDS011;11023;48.274;7.794;2024-02-26T11:37:30;1.98;;;0.80;;
21721;SDS011;11023;48.274;7.794;2024-02-26T11:39:58;0.85;;;0.40;;
21721;SDS011;11023;48.274;7.794;2024-02-26T11:42:26;0.32;;;0.30;;
21721;SDS011;11023;48.274;7.794;2024-02-26T11:44:53;2.05;;;0.30;;
21721;SDS011;11023;48.274;7.794;2024-02-26T11:47:23;2.30;;;0.43;;
21721;SDS011;11023;48.274;7.794;2024-02-26T11:49:49;0.40;;;0.30;;
21721;SDS011;11023;48.274;7.794;2024-02-26T11:52:15;1.08;;;0.55;;
21721;SDS011;11023;48.274;7.794;2024-02-26T11:54:56;0.47;;;0.30;;
21721;SDS011;11023;48.274;7.794;2024-02-26T11:59:56;0.40;;;0.30;;
21721;SDS011;11023;48.274;7.794;2024-02-26T12:05:18;0.52;;;0.40;;
21721;SDS011;11023;48.274;7.794;2024-02-26T12:08:01;0.50;;;0.43;;
21721;SDS011;11023;48.274;7.794;2024-02-26T12:10:31;1.85;;;0.50;;
21721;SDS011;11023;48.274;7.794;2024-02-26T12:13:11;0.93;;;0.68;;
21721;SDS011;11023;48.274;7.794;2024-02-26T12:15:39;0.77;;;0.70;;
21721;SDS011;11023;48.274;7.794;2024-02-26T12:18:07;0.82;;;0.50;;
21721;SDS011;11023;48.274;7.794;2024-02-26T12:20:37;3.22;;;0.52;;
21721;SDS011;11023;48.274;7.794;2024-02-26T12:23:03;0.45;;;0.40;;
21721;SDS011;11023;48.274;7.794;2024-02-26T12:25:30;1.05;;;0.50;;
21721;SDS011;11023;48.274;7.794;2024-02-26T12:27:57;2.83;;;0.60;;
21721;SDS011;11023;48.274;7.794;2024-02-26T12:30:23;2.17;;;1.17;;
21721;SDS011;11023;48.274;7.794;2024-02-26T12:32:51;1.35;;;1.00;;
21721;SDS011;11023;48.274;7.794;2024-02-26T12:35:22;2.85;;;0.60;;
21721;SDS011;11023;48.274;7.794;2024-02-26T12:37:49;2.55;;;0.75;;
21721;SDS011;11023;48.274;7.794;2024-02-26T12:40:16;0.43;;;0.40;;
21721;SDS011;11023;48.274;7.794;2024-02-26T12:42:43;1.75;;;0.60;;
21721;SDS011;11023;48.274;7.794;2024-02-26T12:45:10;0.60;;;0.50;;
21721;SDS011;11023;48.274;7.794;2024-02-26T12:47:38;1.75;;;0.50;;
21721;SDS011;11023;48.274;7.794;2024-02-26T12:50:05;1.40;;;0.80;;
21721;SDS011;11023;48.274;7.794;2024-02-26T12:52:39;0.70;;;0.50;;
21721;SDS011;11023;48.274;7.794;2024-02-26T12:55:06;1.38;;;0.57;;
21721;SDS011;11023;48.274;7.794;2024-02-26T12:57:36;2.35;;;0.52;;
21721;SDS011;11023;48.274;7.794;2024-02-26T13:00:04;1.90;;;0.70;;
21721;SDS011;11023;48.274;7.794;2024-02-26T13:02:34;1.13;;;0.65;;
21721;SDS011;11023;48.274;7.794;2024-02-26T13:05:02;4.95;;;1.00;;
21721;SDS011;11023;48.274;7.794;2024-02-26T13:07:31;1.02;;;0.85;;
21721;SDS011;11023;48.274;7.794;2024-02-26T13:09:56;0.85;;;0.57;;
21721;SDS011;11023;48.274;7.794;2024-02-26T13:12:22;1.92;;;0.60;;
21721;SDS011;11023;48.274;7.794;2024-02-26T13:14:58;0.40;;;0.40;;
21721;SDS011;11023;48.274;7.794;2024-02-26T13:17:24;0.63;;;0.60;;
21721;SDS011;11023;48.274;7.794;2024-02-26T13:19:52;2.17;;;0.60;;
21721;SDS011;11023;48.274;7.794;2024-02-26T13:22:20;0.52;;;0.52;;
21721;SDS011;11023;48.274;7.794;2024-02-26T13:24:53;1.42;;;0.70;;
21721;SDS011;11023;48.274;7.794;2024-02-26T13:27:25;3.70;;;0.70;;
21721;SDS011;11023;48.274;7.794;2024-02-26T13:30:09;4.38;;;0.80;;
21721;SDS011;11023;48.274;7.794;2024-02-26T13:32:37;0.80;;;0.50;;
21721;SDS011;11023;48.274;7.794;2024-02-26T13:35:08;0.60;;;0.47;;
21721;SDS011;11023;48.274;7.794;2024-02-26T13:37:37;0.77;;;0.55;;
21721;SDS011;11023;48.274;7.794;2024-02-26T13:40:05;1.65;;;0.82;;
21721;SDS011;11023;48.274;7.794;2024-02-26T13:42:34;0.90;;;0.50;;
21721;SDS011;11023;48.274;7.794;2024-02-26T13:45:01;0.75;;;0.57;;
21721;SDS011;11023;48.274;7.794;2024-02-26T13:47:27;0.98;;;0.55;;
21721;SDS011;11023;48.274;7.794;2024-02-26T13:49:53;2.15;;;0.70;;
21721;SDS011;11023;48.274;7.794;2024-02-26T13:52:19;2.20;;;0.80;;
21721;SDS011;11023;48.274;7.794;2024-02-26T13:54:47;0.70;;;0.50;;
21721;SDS011;11023;48.274;7.794;2024-02-26T13:57:13;1.50;;;0.63;;
21721;SDS011;11023;48.274;7.794;2024-02-26T13:59:39;0.77;;;0.60;;
21721;SDS011;11023;48.274;7.794;2024-02-26T14:02:07;1.15;;;0.50;;
21721;SDS011;11023;48.274;7.794;2024-02-26T14:04:36;0.85;;;0.73;;
21721;SDS011;11023;48.274;7.794;2024-02-26T14:07:02;3.25;;;0.73;;
21721;SDS011;11023;48.274;7.794;2024-02-26T14:09:29;1.83;;;0.80;;
21721;SDS011;11023;48.274;7.794;2024-02-26T14:11:54;0.73;;;0.60;;
21721;SDS011;11023;48.274;7.794;2024-02-26T14:14:20;1.23;;;0.90;;
21721;SDS011;11023;48.274;7.794;2024-02-26T14:16:46;1.58;;;0.73;;
21721;SDS011;11023;48.274;7.794;2024-02-26T14:19:11;1.20;;;0.77;;
21721;SDS011;11023;48.274;7.794;2024-02-26T14:21:37;1.40;;;0.73;;
21721;SDS011;11023;48.274;7.794;2024-02-26T14:24:03;1.27;;;0.85;;
21721;SDS011;11023;48.274;7.794;2024-02-26T14:26:29;1.65;;;0.80;;
21721;SDS011;11023;48.274;7.794;2024-02-26T14:28:55;2.05;;;0.90;;
21721;SDS011;11023;48.274;7.794;2024-02-26T14:31:21;1.88;;;0.88;;
21721;SDS011;11023;48.274;7.794;2024-02-26T14:33:46;1.88;;;0.70;;
21721;SDS011;11023;48.274;7.794;2024-02-26T14:36:13;1.13;;;0.68;;
21721;SDS011;11023;48.274;7.794;2024-02-26T14:38:39;1.35;;;0.70;;
21721;SDS011;11023;48.274;7.794;2024-02-26T14:41:04;1.35;;;0.80;;
21721;SDS011;11023;48.274;7.794;2024-02-26T14:43:30;4.65;;;0.75;;
21721;SDS011;11023;48.274;7.794;2024-02-26T14:46:00;3.00;;;0.70;;
21721;SDS011;11023;48.274;7.794;2024-02-26T14:48:25;5.53;;;1.10;;
21721;SDS011;11023;48.274;7.794;2024-02-26T14:50:51;2.45;;;0.70;;